Time;durP1;ratioP1;P1;durP2;ratioP2;P2;SDS_P1;SDS_P2;PMS_P1;PMS_P2;Temp;Humidity;BMP_temperature;BMP_pressure;BME280_temperature;BME280_humidity;BME280_pressure;Samples;Min_cycle;Max_cycle;Signal;HPM_P1;HPM_P2
2022/05/12 00:00:49;;;;;;;4.20;1.58;;;;;;;14.78;74.52;101372.94;5054876;28;20263;-35
2022/05/12 00:03:16;;;;;;;;;;;;;;;14.96;72.71;101384.69;5055988;28;20418;-35
2022/05/12 00:05:42;;;;;;;6.20;1.42;;;;;;;14.79;74.26;101384.69;5054778;28;19965;-35
2022/05/12 00:08:07;;;;;;;;;;;;;;;14.89;72.49;101393.84;5054718;28;20033;-35
2022/05/12 00:10:32;;;;;;;7.85;1.65;;;;;;;14.71;73.92;101399.50;5055370;28;19928;-35
2022/05/12 00:12:58;;;;;;;8.23;1.60;;;;;;;14.66;73.98;101402.97;5054670;28;20033;-35
2022/05/12 00:15:28;;;;;;;3.72;1.15;;;;;;;14.57;74.16;101396.25;5054657;28;20674;-35
2022/05/12 00:17:53;;;;;;;3.70;1.27;;;;;;;14.58;74.13;101406.06;5054525;28;20032;-35
2022/05/12 00:20:19;;;;;;;;;;;;;;;14.74;72.17;101409.06;5055011;28;20358;-35
2022/05/12 00:22:45;;;;;;;5.15;1.52;;;;;;;14.46;73.78;101404.47;5054440;28;19909;-35
2022/05/12 00:25:18;;;;;;;;;;;;;;;14.66;72.25;101405.69;5055377;28;20033;-35
2022/05/12 00:27:43;;;;;;;5.80;1.67;;;;;;;14.48;73.39;101416.75;5054805;28;19912;-35
2022/05/12 00:30:10;;;;;;;;;;;;;;;14.59;71.93;101418.63;5054667;28;20150;-35
2022/05/12 00:32:40;;;;;;;5.03;1.50;;;;;;;14.34;73.72;101423.53;5054168;28;19985;-35
2022/05/12 00:35:07;;;;;;;4.82;1.33;;;;;;;14.34;73.60;101431.69;5053340;28;20492;-35
2022/05/12 00:37:33;;;;;;;5.53;1.30;;;;;;;14.33;73.48;101425.41;5054740;28;20032;-35
2022/05/12 00:39:58;;;;;;;;;;;;;;;14.46;71.93;101437.94;5054474;28;20116;-35
2022/05/12 00:42:23;;;;;;;6.20;1.83;;;;;;;14.30;73.35;101438.69;5054795;28;20371;-35
2022/05/12 00:44:48;;;;;;;5.50;1.20;;;;;;;14.28;73.80;101443.53;5054252;28;20259;-35
2022/05/12 00:47:14;;;;;;;3.53;1.20;;;;;;;14.18;73.74;101441.44;5054530;28;20270;-35
2022/05/12 00:49:42;;;;;;;5.10;1.30;;;;;;;14.10;73.79;101441.81;5053551;28;20047;-35
2022/05/12 00:52:20;;;;;;;5.50;2.08;;;;;;;14.06;73.99;101446.91;5053806;28;20037;-35
2022/05/12 00:54:55;;;;;;;5.10;1.40;;;;;;;14.08;73.88;101439.34;5053747;28;20083;-35
2022/05/12 00:57:38;;;;;;;3.97;1.40;;;;;;;13.88;74.48;101442.44;5054066;28;20127;-35
2022/05/12 01:00:08;;;;;;;5.40;1.35;;;;;;;13.87;74.13;101450.84;5053473;28;20029;-35
2022/05/12 01:02:34;;;;;;;3.05;1.08;;;;;;;13.94;73.99;101448.00;5054249;28;20039;-35
2022/05/12 01:05:00;;;;;;;4.03;1.10;;;;;;;13.79;74.17;101445.75;5053798;28;20115;-35
2022/05/12 01:07:26;;;;;;;3.08;1.23;;;;;;;13.86;74.16;101449.19;5053827;28;20120;-35
2022/05/12 01:09:52;;;;;;;3.43;1.40;;;;;;;13.81;74.13;101462.66;5053344;28;20049;-35
2022/05/12 01:12:18;;;;;;;2.92;0.90;;;;;;;13.74;73.83;101453.81;5053808;28;20255;-35
2022/05/12 01:14:44;;;;;;;3.30;1.02;;;;;;;13.67;74.14;101448.50;5053902;28;20143;-35
2022/05/12 01:17:09;;;;;;;3.95;1.10;;;;;;;13.75;73.75;101469.03;5053378;28;20027;-35
2022/05/12 01:19:38;;;;;;;3.10;1.15;;;;;;;13.55;74.20;101459.34;5052855;28;20032;-35
2022/05/12 01:22:06;;;;;;;2.83;0.93;;;;;;;13.60;74.23;101470.34;5053295;28;20029;-35
2022/05/12 01:24:35;;;;;;;3.78;1.10;;;;;;;13.61;74.08;101474.69;5053251;28;20109;-35
2022/05/12 01:27:18;;;;;;;3.13;1.02;;;;;;;13.49;74.22;101478.50;5053138;28;20098;-35
2022/05/12 01:29:55;;;;;;;2.42;0.90;;;;;;;13.35;74.85;101478.69;5053149;28;20048;-35
2022/05/12 01:32:23;;;;;;;4.03;1.10;;;;;;;13.37;74.49;101492.03;5052864;28;20029;-35
2022/05/12 01:34:49;;;;;;;3.13;1.30;;;;;;;13.34;74.88;101492.53;5052796;28;20033;-35
2022/05/12 01:37:14;;;;;;;1.77;0.98;;;;;;;13.39;74.82;101489.94;5053298;28;20033;-35
2022/05/12 01:39:40;;;;;;;2.92;0.98;;;;;;;13.43;74.67;101490.31;5052995;28;20112;-35
2022/05/12 01:42:09;;;;;;;4.13;0.80;;;;;;;13.25;75.02;101499.34;5053751;28;20060;-35
2022/05/12 01:44:35;;;;;;;1.73;0.80;;;;;;;13.33;74.76;101499.84;5053289;28;20066;-35
2022/05/12 01:47:00;;;;;;;;;;;;;;;13.47;72.97;101507.75;5054169;28;20055;-34
2022/05/12 01:49:26;;;;;;;2.40;1.00;;;;;;;13.18;75.13;101495.91;5052731;28;19912;-35
2022/05/12 01:51:57;;;;;;;4.13;1.27;;;;;;;13.01;75.80;101501.97;5053597;28;20278;-35
2022/05/12 01:54:24;;;;;;;2.53;1.10;;;;;;;12.88;76.43;101494.00;5052769;28;20033;-35
2022/05/12 01:56:50;;;;;;;2.85;0.80;;;;;;;12.89;75.96;101504.66;5053488;28;20048;-34
2022/05/12 01:59:18;;;;;;;3.70;1.15;;;;;;;12.77;76.69;101508.38;5051357;28;20443;-35
2022/05/12 02:01:44;;;;;;;3.85;0.90;;;;;;;12.74;77.27;101508.84;5052383;28;20478;-35
2022/05/12 02:04:10;;;;;;;3.28;0.90;;;;;;;12.61;77.25;101509.81;5053300;28;20024;-35
2022/05/12 02:06:35;;;;;;;2.13;0.97;;;;;;;12.59;77.61;101525.50;5052964;28;20033;-35
2022/05/12 02:09:00;;;;;;;3.60;1.27;;;;;;;12.56;77.89;101532.22;5052552;28;20341;-34
2022/05/12 02:11:26;;;;;;;3.53;1.00;;;;;;;12.54;77.83;101534.34;5052180;28;20071;-33
2022/05/12 02:13:52;;;;;;;2.75;1.08;;;;;;;12.58;77.96;101532.81;5052285;28;20029;-34
2022/05/12 02:16:17;;;;;;;4.13;1.00;;;;;;;12.53;77.96;101529.94;5052266;28;20485;-34
2022/05/12 02:18:43;;;;;;;5.03;1.30;;;;;;;12.54;77.96;101534.34;5052317;28;20029;-34
2022/05/12 02:21:09;;;;;;;2.85;1.02;;;;;;;12.45;78.25;101537.59;5052482;28;20286;-34
2022/05/12 02:23:35;;;;;;;;;;;;;;;12.65;76.10;101537.34;5052906;28;20057;-33
2022/05/12 02:26:00;;;;;;;3.88;1.35;;;;;;;12.40;77.69;101537.44;5052732;28;19908;-34
2022/05/12 02:28:25;;;;;;;5.30;1.23;;;;;;;12.39;78.58;101544.72;5052237;28;20036;-33
2022/05/12 02:30:51;;;;;;;2.17;1.15;;;;;;;12.34;78.62;101550.00;5052299;28;20492;-35
2022/05/12 02:33:16;;;;;;;3.30;1.00;;;;;;;12.30;78.90;101548.81;5056827;28;20037;-34
2022/05/12 02:35:42;;;;;;;3.60;1.47;;;;;;;12.32;79.40;101554.81;5056781;28;20252;-35
2022/05/12 02:38:08;;;;;;;3.90;1.27;;;;;;;12.39;78.67;101555.56;5056077;28;20036;-34
2022/05/12 02:40:34;;;;;;;3.92;1.00;;;;;;;12.40;79.34;101556.41;5056758;28;20029;-35
2022/05/12 02:42:59;;;;;;;5.18;1.50;;;;;;;12.38;79.35;101548.50;5056352;28;20028;-34
2022/05/12 02:45:26;;;;;;;4.43;1.27;;;;;;;12.33;78.75;101551.06;5056320;28;20477;-34
2022/05/12 02:47:52;;;;;;;5.25;1.92;;;;;;;12.28;79.68;101570.72;5056122;28;20033;-34
2022/05/12 02:50:18;;;;;;;5.00;1.55;;;;;;;12.35;79.25;101568.78;5056851;28;20032;-34
2022/05/12 02:52:43;;;;;;;;;;;;;;;12.54;77.20;101580.47;5056527;28;20086;-34
2022/05/12 02:55:09;;;;;;;5.82;1.50;;;;;;;12.29;79.31;101582.38;5056853;28;19913;-34
2022/05/12 02:57:35;;;;;;;7.28;2.10;;;;;;;12.42;79.62;101579.53;5056487;28;20465;-34
2022/05/12 03:00:01;;;;;;;6.15;1.73;;;;;;;12.37;79.46;101576.66;5055947;28;20080;-34
2022/05/12 03:02:26;;;;;;;4.72;1.50;;;;;;;12.39;79.68;101577.25;5055857;28;20037;-34
2022/05/12 03:04:52;;;;;;;6.37;1.60;;;;;;;12.36;79.55;101580.44;5055882;28;20070;-34
2022/05/12 03:07:17;;;;;;;5.40;1.80;;;;;;;12.33;79.76;101587.13;5055910;28;20256;-34
2022/05/12 03:09:43;;;;;;;9.27;1.90;;;;;;;12.32;79.52;101590.06;5055849;28;20061;-34
2022/05/12 03:12:08;;;;;;;5.05;1.83;;;;;;;12.24;79.89;101590.34;5055490;28;20283;-34
2022/05/12 03:14:34;;;;;;;4.25;1.60;;;;;;;12.32;79.92;101590.91;5055756;28;20033;-34
2022/05/12 03:16:59;;;;;;;7.03;1.87;;;;;;;12.35;79.92;101587.75;5055552;28;20106;-34
2022/05/12 03:19:25;;;;;;;7.40;2.20;;;;;;;12.31;79.73;101580.28;5055719;28;20029;-34
2022/05/12 03:21:51;;;;;;;;;;;;;;;12.50;77.72;101600.13;5056403;28;20032;-34
2022/05/12 03:24:18;;;;;;;6.18;1.83;;;;;;;12.39;79.84;101593.53;5055787;28;19913;-34
2022/05/12 03:26:44;;;;;;;6.05;2.17;;;;;;;12.24;80.53;101587.66;5055205;28;20033;-35
2022/05/12 03:29:09;;;;;;;8.88;2.42;;;;;;;12.08;80.62;101581.75;5055922;28;20087;-34
2022/05/12 03:31:36;;;;;;;6.95;2.25;;;;;;;12.18;80.75;101599.41;5055703;28;20331;-34
2022/05/12 03:34:01;;;;;;;;;;;;;;;12.32;78.66;101598.22;5055788;28;20048;-34
2022/05/12 03:36:26;;;;;;;7.70;2.50;;;;;;;12.04;81.55;101598.69;5055594;28;19919;-34
2022/05/12 03:38:52;;;;;;;8.50;2.63;;;;;;;12.08;81.75;101597.19;5055489;28;20275;-34
2022/05/12 03:41:17;;;;;;;7.40;2.70;;;;;;;12.00;81.59;101600.16;5055821;28;20036;-34
2022/05/12 03:46:26;;;;;;;8.75;2.85;;;;;;;12.09;82.42;101624.06;5054912;28;20048;-34
2022/05/12 03:48:52;;;;;;;11.93;3.78;;;;;;;12.07;81.90;101609.91;5055016;28;20400;-34
2022/05/12 03:51:17;;;;;;;9.77;3.35;;;;;;;12.07;82.71;101626.19;5055046;28;20025;-34
2022/05/12 03:53:43;;;;;;;11.32;3.83;;;;;;;12.06;82.81;101624.53;5054962;28;20025;-35
2022/05/12 03:56:09;;;;;;;7.00;3.25;;;;;;;12.11;82.88;101630.13;5054935;28;20033;-35
2022/05/12 03:58:35;;;;;;;10.30;3.92;;;;;;;12.05;83.07;101630.16;5054981;28;20061;-34
2022/05/12 04:01:03;;;;;;;10.88;4.30;;;;;;;12.06;83.47;101638.09;5054593;28;20104;-34
2022/05/12 04:03:28;;;;;;;10.35;4.22;;;;;;;11.97;84.34;101644.00;5054780;28;20025;-34
2022/05/12 04:05:59;;;;;;;9.07;4.40;;;;;;;11.90;84.78;101641.31;5055082;28;20032;-34
2022/05/12 04:08:24;;;;;;;11.10;4.57;;;;;;;11.81;85.00;101638.03;5054670;28;20033;-34
2022/05/12 04:10:51;;;;;;;12.35;4.72;;;;;;;11.88;85.06;101657.00;5055452;28;20045;-34
2022/05/12 04:13:16;;;;;;;12.82;4.95;;;;;;;11.93;85.07;101659.88;5054502;28;20032;-34
2022/05/12 04:15:42;;;;;;;11.60;4.78;;;;;;;11.90;85.45;101663.00;5054940;28;20033;-34
2022/05/12 04:18:08;;;;;;;11.70;5.30;;;;;;;11.97;85.10;101661.09;5054468;28;20515;-35
2022/05/12 04:20:35;;;;;;;12.93;5.50;;;;;;;11.84;85.77;101664.72;5055106;28;20140;-35
2022/05/12 04:23:00;;;;;;;15.20;5.10;;;;;;;11.89;85.93;101664.06;5054909;28;20115;-35
2022/05/12 04:25:27;;;;;;;15.73;5.32;;;;;;;11.88;85.86;101667.81;5054680;28;20174;-35
2022/05/12 04:27:52;;;;;;;10.70;5.03;;;;;;;11.82;85.88;101669.53;5054344;28;20163;-35
2022/05/12 04:30:22;;;;;;;13.93;6.05;;;;;;;11.85;86.21;101670.97;5054244;28;20108;-35
2022/05/12 04:32:47;;;;;;;13.57;6.40;;;;;;;11.87;86.57;101681.59;5054184;28;20025;-35
2022/05/12 04:35:14;;;;;;;16.08;7.15;;;;;;;11.86;86.63;101686.19;5054822;28;20025;-35
2022/05/12 04:37:47;;;;;;;18.77;6.88;;;;;;;11.90;86.82;101690.09;5053969;28;20025;-35
2022/05/12 04:40:28;;;;;;;15.35;6.07;;;;;;;11.91;87.11;101689.09;5054100;28;20036;-35
2022/05/12 04:42:55;;;;;;;12.57;6.10;;;;;;;11.90;87.07;101692.00;5054265;28;20021;-35
2022/05/12 04:45:22;;;;;;;10.55;5.70;;;;;;;12.02;86.74;101687.53;5053625;28;20029;-35
2022/05/12 04:47:48;;;;;;;13.20;5.95;;;;;;;12.00;86.91;101701.28;5053705;28;20037;-35
2022/05/12 04:50:18;;;;;;;;;;;;;;;12.22;84.98;101700.94;5052414;28;20037;-35
2022/05/12 04:52:44;;;;;;;15.63;6.55;;;;;;;12.07;87.01;101693.13;5054556;28;19920;-35
2022/05/12 04:55:10;;;;;;;13.38;6.70;;;;;;;12.05;87.24;101693.38;5052952;28;20029;-35
2022/05/12 04:57:46;;;;;;;12.65;7.22;;;;;;;12.17;87.17;101698.88;5053535;28;20036;-35
2022/05/12 05:00:19;;;;;;;13.32;7.03;;;;;;;12.14;87.24;101695.78;5053671;28;20032;-35
2022/05/12 05:02:44;;;;;;;14.85;7.97;;;;;;;12.13;87.64;101702.25;5053515;28;20493;-35
2022/05/12 05:05:11;;;;;;;15.47;7.60;;;;;;;12.19;87.81;101710.34;5053434;28;20115;-35
2022/05/12 05:07:37;;;;;;;18.80;8.32;;;;;;;12.22;87.37;101699.06;5053801;28;20294;-35
2022/05/12 05:10:04;;;;;;;13.35;7.68;;;;;;;12.29;87.37;101717.97;5053126;28;20477;-35
2022/05/12 05:12:29;;;;;;;13.70;7.60;;;;;;;12.30;87.39;101722.38;5053749;28;20111;-35
2022/05/12 05:14:55;;;;;;;15.93;7.50;;;;;;;12.39;87.09;101723.72;5054212;28;20104;-35
2022/05/12 05:17:22;;;;;;;18.35;8.48;;;;;;;12.44;87.37;101726.59;5053693;28;20025;-35
2022/05/12 05:19:47;;;;;;;15.20;7.95;;;;;;;12.42;87.49;101726.00;5053040;28;20067;-35
2022/05/12 05:22:13;;;;;;;14.07;8.68;;;;;;;12.57;87.51;101737.34;5053801;28;20062;-35
2022/05/12 05:24:38;;;;;;;15.70;8.87;;;;;;;12.54;87.95;101740.53;5053256;28;20040;-35
2022/05/12 05:27:04;;;;;;;14.77;9.38;;;;;;;12.62;87.45;101736.69;5053380;28;20029;-34
2022/05/12 05:29:29;;;;;;;19.40;9.82;;;;;;;12.72;87.88;101745.16;5053263;28;20404;-35
2022/05/12 05:31:54;;;;;;;15.65;9.32;;;;;;;12.77;88.19;101741.75;5053416;28;20071;-34
2022/05/12 05:34:20;;;;;;;14.73;9.47;;;;;;;12.96;87.25;101746.16;5053362;28;20035;-34
2022/05/12 05:36:45;;;;;;;16.27;9.73;;;;;;;12.91;87.46;101748.72;5053172;28;20044;-34
2022/05/12 05:39:22;;;;;;;16.00;10.40;;;;;;;12.97;87.20;101742.38;5053064;28;20036;-34
2022/05/12 05:41:48;;;;;;;13.75;9.90;;;;;;;13.14;87.35;101758.94;5053792;28;20263;-35
2022/05/12 05:44:14;;;;;;;16.85;10.35;;;;;;;13.17;87.16;101755.75;5052875;28;20033;-35
2022/05/12 05:46:39;;;;;;;16.58;10.05;;;;;;;13.24;87.19;101766.59;5051440;28;20040;-34
2022/05/12 05:49:04;;;;;;;14.90;10.20;;;;;;;13.32;85.81;101775.28;5053126;28;20032;-34
2022/05/12 05:54:14;;;;;;;13.80;9.93;;;;;;;13.50;86.37;101781.72;5052885;28;20044;-34
2022/05/12 05:56:39;;;;;;;17.03;9.90;;;;;;;13.56;85.99;101788.97;5053166;28;20029;-34
2022/05/12 05:59:05;;;;;;;14.50;11.07;;;;;;;13.65;85.25;101799.31;5052763;28;20275;-34
2022/05/12 06:01:30;;;;;;;15.65;10.43;;;;;;;13.57;85.94;101783.31;5053003;28;20273;-35
2022/05/12 06:03:57;;;;;;;16.17;9.97;;;;;;;13.70;86.03;101805.94;5052402;28;20032;-35
2022/05/12 06:06:23;;;;;;;16.40;10.02;;;;;;;13.68;85.78;101799.94;5050944;28;20355;-35
2022/05/12 06:08:49;;;;;;;14.82;10.07;;;;;;;13.68;86.59;101808.91;5052491;28;20025;-35
2022/05/12 06:11:15;;;;;;;19.13;10.70;;;;;;;13.70;86.20;101806.78;5052845;28;20492;-35
2022/05/12 06:13:40;;;;;;;17.55;11.10;;;;;;;13.87;85.74;101810.53;5052590;28;20400;-34
2022/05/12 06:16:06;;;;;;;16.85;10.27;;;;;;;13.90;85.48;101811.94;5052994;28;20033;-35
2022/05/12 06:18:32;;;;;;;16.27;10.93;;;;;;;13.98;84.90;101822.53;5050980;28;20031;-35
2022/05/12 06:20:58;;;;;;;16.27;10.13;;;;;;;14.06;84.59;101822.22;5053264;28;20055;-35
2022/05/12 06:23:23;;;;;;;16.35;10.82;;;;;;;14.09;84.43;101815.47;5052207;28;20529;-34
2022/05/12 06:25:48;;;;;;;18.20;11.27;;;;;;;14.12;84.41;101815.84;5053233;28;20029;-34
2022/05/12 06:28:14;;;;;;;14.75;9.48;;;;;;;14.26;83.52;101823.81;5052550;28;20055;-34
2022/05/12 06:30:40;;;;;;;15.15;9.68;;;;;;;14.23;83.33;101821.56;5052636;28;20021;-34
2022/05/12 06:33:06;;;;;;;12.65;9.35;;;;;;;14.28;83.10;101825.22;5052443;28;20021;-35
2022/05/12 06:35:31;;;;;;;;;;;;;;;14.53;82.57;101827.00;5053193;28;20386;-34
2022/05/12 06:37:57;;;;;;;13.07;9.48;;;;;;;14.52;82.45;101836.22;5052303;28;19908;-35
2022/05/12 06:40:22;;;;;;;;;;;;;;;14.68;81.69;101836.34;5052504;28;20040;-35
2022/05/12 06:42:48;;;;;;;12.63;8.27;;;;;;;14.61;81.24;101830.22;5051697;28;19916;-35
2022/05/12 06:45:16;;;;;;;13.63;8.20;;;;;;;14.60;81.01;101827.72;5053107;28;20477;-35
2022/05/12 06:47:48;;;;;;;14.40;8.75;;;;;;;14.67;80.93;101840.16;5050984;28;20033;-35
2022/05/12 06:50:15;;;;;;;13.50;8.02;;;;;;;14.80;80.21;101846.47;5052237;28;20389;-35
2022/05/12 06:52:41;;;;;;;11.73;7.10;;;;;;;14.75;78.20;101849.88;5052435;28;20147;-34
2022/05/12 06:55:07;;;;;;;11.48;6.78;;;;;;;14.70;78.26;101851.66;5052448;28;20036;-35
2022/05/12 06:57:32;;;;;;;;;;;;;;;14.94;78.01;101848.72;5052916;28;20384;-35
2022/05/12 06:59:58;;;;;;;10.40;6.20;;;;;;;14.87;77.72;101847.16;5052169;28;20332;-35
2022/05/12 07:02:24;;;;;;;11.10;7.70;;;;;;;14.95;77.24;101855.00;5051932;28;20425;-35
2022/05/12 07:04:52;;;;;;;11.60;7.40;;;;;;;15.06;77.06;101851.44;5052180;28;20029;-34
2022/05/12 07:07:18;;;;;;;14.75;7.13;;;;;;;15.18;76.30;101856.91;5052055;28;20029;-35
2022/05/12 07:09:43;;;;;;;;;;;;;;;15.39;77.10;101869.09;5052436;28;20047;-34
2022/05/12 07:12:11;;;;;;;13.70;7.20;;;;;;;15.24;75.62;101866.03;5051983;28;19913;-34
2022/05/12 07:14:36;;;;;;;12.63;6.82;;;;;;;15.16;75.84;101846.22;5050574;28;20055;-35
2022/05/12 07:17:03;;;;;;;;;;;;;;;15.43;75.81;101868.38;5051045;28;20037;-35
2022/05/12 07:19:31;;;;;;;11.80;6.97;;;;;;;15.22;74.83;101863.53;5055698;28;19964;-35
2022/05/12 07:26:35;;;;;;;10.40;7.25;;;;;;;15.41;75.06;101866.94;5056137;28;20048;-34
2022/05/12 07:27:38;;;;;;;10.80;6.05;;;;;;;15.53;72.49;101875.97;5055587;28;20128;-34
2022/05/12 07:30:03;;;;;;;;;;;;;;;15.60;73.08;101882.09;5056529;28;20116;-34
2022/05/12 07:32:29;;;;;;;9.95;5.57;;;;;;;15.42;72.35;101887.69;5055433;28;20371;-34
2022/05/12 07:34:54;;;;;;;12.30;6.18;;;;;;;15.38;71.19;101886.53;5055138;28;20115;-35
2022/05/12 07:37:20;;;;;;;;;;;;;;;15.55;72.44;101883.88;5055733;28;20025;-35
2022/05/12 07:39:45;;;;;;;7.97;4.70;;;;;;;15.54;68.77;101883.06;5055363;28;19912;-35
2022/05/12 07:42:10;;;;;;;;;;;;;;;15.75;70.32;101883.53;5055815;28;20056;-35
2022/05/12 07:44:35;;;;;;;9.20;5.07;;;;;;;15.71;67.50;101872.28;5054837;28;19917;-34
2022/05/12 07:47:02;;;;;;;;;;;;;;;16.01;68.95;101893.94;5055633;28;20021;-35
2022/05/12 07:49:31;;;;;;;10.35;4.90;;;;;;;15.95;67.43;101881.22;5055411;28;19912;-34
2022/05/12 07:51:56;;;;;;;11.07;4.82;;;;;;;15.99;66.70;101884.31;5055274;28;20497;-34
2022/05/12 07:54:22;;;;;;;;;;;;;;;16.30;68.35;101889.31;5055621;28;20032;-35
2022/05/12 07:56:47;;;;;;;9.37;5.17;;;;;;;16.39;66.93;101893.28;5055079;28;19978;-35
2022/05/12 07:59:12;;;;;;;8.27;4.60;;;;;;;16.52;65.97;101907.72;5055201;28;20333;-34
2022/05/12 08:01:38;;;;;;;8.07;3.87;;;;;;;16.50;64.15;101886.13;5054616;28;20339;-35
2022/05/12 08:04:03;;;;;;;7.07;3.58;;;;;;;16.63;63.24;101901.38;5054781;28;20278;-35
2022/05/12 08:06:28;;;;;;;;;;;;;;;16.80;65.76;101898.69;5055621;28;20029;-35
2022/05/12 08:08:55;;;;;;;8.73;3.77;;;;;;;16.84;62.19;101899.88;5055323;28;20252;-35
2022/05/12 08:11:20;;;;;;;;;;;;;;;16.91;64.04;101904.06;5055011;28;20331;-35
2022/05/12 08:13:47;;;;;;;8.05;3.50;;;;;;;16.64;62.27;101898.41;5054756;28;20369;-35
2022/05/12 08:16:15;;;;;;;5.78;3.03;;;;;;;16.55;60.75;101916.25;5055423;28;20048;-35
2022/05/12 08:18:42;;;;;;;7.07;2.58;;;;;;;16.42;61.72;101911.09;5054625;28;20039;-35
2022/05/12 08:21:07;;;;;;;7.07;2.78;;;;;;;16.21;60.95;101897.06;5055370;28;20352;-35
2022/05/12 08:23:32;;;;;;;;;;;;;;;16.56;62.36;101911.63;5054963;28;20108;-35
2022/05/12 08:25:58;;;;;;;6.47;2.37;;;;;;;16.71;59.64;101893.63;5055356;28;19962;-35
2022/05/12 08:28:24;;;;;;;;;;;;;;;17.08;60.92;101909.56;5054497;28;20358;-35
2022/05/12 08:30:50;;;;;;;4.40;1.75;;;;;;;17.17;56.48;101899.84;5054535;28;19913;-35
2022/05/12 08:33:19;;;;;;;3.58;1.77;;;;;;;17.11;53.87;101913.69;5054095;28;20119;-44
2022/05/12 08:35:45;;;;;;;5.07;1.85;;;;;;;16.84;54.39;101902.59;5054563;28;20029;-35
2022/05/12 08:38:13;;;;;;;4.13;1.90;;;;;;;16.78;54.91;101917.22;5053923;28;20139;-35
2022/05/12 08:41:00;;;;;;;6.95;2.15;;;;;;;16.87;57.00;101904.81;5054968;28;20039;-35
2022/05/12 08:43:36;;;;;;;6.85;1.83;;;;;;;17.12;55.08;101904.41;5054167;28;20446;-35
2022/05/12 08:46:12;;;;;;;3.17;1.38;;;;;;;17.49;53.13;101902.81;5054840;28;20454;-35
2022/05/12 08:48:41;;;;;;;6.25;1.70;;;;;;;17.61;49.57;101902.69;5054767;28;20029;-35
2022/05/12 08:51:08;;;;;;;4.30;1.65;;;;;;;17.67;49.17;101895.41;5053953;28;20039;-35
2022/05/12 08:53:48;;;;;;;3.42;1.40;;;;;;;17.66;49.89;101910.97;5053684;28;20086;-35
2022/05/12 08:56:13;;;;;;;5.90;2.03;;;;;;;17.47;49.30;101915.06;5053869;28;20215;-35
2022/05/12 08:58:40;;;;;;;;;;;;;;;17.54;52.59;101912.16;5054671;28;20107;-35
2022/05/12 09:01:20;;;;;;;4.85;1.80;;;;;;;17.18;52.11;101911.63;5054081;28;19999;-35
2022/05/12 09:04:25;;;;;;;3.65;1.40;;;;;;;17.22;51.61;101908.13;5054532;28;20029;-35
2022/05/12 09:07:02;;;;;;;3.08;1.20;;;;;;;17.47;50.39;101918.66;5054435;28;20061;-35
2022/05/12 09:09:51;;;;;;;4.25;1.48;;;;;;;17.81;50.24;101917.75;5054096;28;20036;-35
2022/05/12 09:12:42;;;;;;;5.05;1.40;;;;;;;17.74;50.38;101916.03;5054098;28;20029;-35
2022/05/12 09:15:13;;;;;;;4.07;1.25;;;;;;;17.80;47.74;101922.41;5053539;28;20032;-35
2022/05/12 09:17:43;;;;;;;3.00;1.10;;;;;;;18.05;47.56;101924.63;5054205;28;20434;-35
2022/05/12 09:20:10;;;;;;;4.22;1.50;;;;;;;18.15;47.97;101926.66;5053449;28;20039;-35
2022/05/12 09:22:37;;;;;;;3.35;1.42;;;;;;;18.09;48.68;101917.56;5053411;28;20055;-35
2022/05/12 09:25:03;;;;;;;4.97;1.45;;;;;;;17.99;47.89;101923.75;5053306;28;20032;-35
2022/05/12 09:27:31;;;;;;;;;;;;;;;18.10;48.10;101927.44;5054476;28;20094;-35
2022/05/12 09:29:56;;;;;;;4.45;1.60;;;;;;;17.95;48.66;101916.28;5052888;28;19919;-35
2022/05/12 09:32:23;;;;;;;;;;;;;;;18.09;49.91;101922.22;5052462;28;20408;-35
2022/05/12 09:35:11;;;;;;;3.08;1.73;;;;;;;17.75;48.10;101931.34;5053553;28;19908;-35
2022/05/12 09:37:40;;;;;;;4.00;1.63;;;;;;;17.67;47.28;101925.50;5049693;28;20060;-35
2022/05/12 09:40:17;;;;;;;6.45;1.50;;;;;;;17.69;49.11;101931.53;5053488;28;20113;-35
2022/05/12 09:42:46;;;;;;;5.53;1.60;;;;;;;17.57;48.62;101922.59;5053891;28;20108;-35
2022/05/12 09:45:33;;;;;;;3.67;1.48;;;;;;;17.52;48.39;101917.91;5052816;28;20500;-35
2022/05/12 09:48:08;;;;;;;3.35;1.20;;;;;;;17.65;48.26;101922.16;5053409;28;20338;-35
2022/05/12 09:50:33;;;;;;;4.75;1.35;;;;;;;17.90;45.69;101917.06;5052593;28;20036;-35
2022/05/12 09:53:00;;;;;;;;;;;;;;;18.25;48.74;101913.94;5054154;28;20033;-35
2022/05/12 09:55:30;;;;;;;4.28;1.15;;;;;;;18.70;44.84;101909.25;5052911;28;19908;-35
2022/05/12 09:58:01;;;;;;;2.58;1.10;;;;;;;18.81;43.48;101904.66;5052869;28;20390;-35
2022/05/12 10:01:03;;;;;;;3.13;1.10;;;;;;;18.88;44.41;101906.09;5052909;28;20033;-35
2022/05/12 10:09:17;;;;;;;4.28;1.20;;;;;;;19.21;42.70;101907.72;5053219;28;20071;-35
2022/05/12 10:12:07;;;;;;;4.53;1.00;;;;;;;19.24;42.88;101907.22;5052548;28;20485;-35
2022/05/12 10:14:50;;;;;;;3.88;1.67;;;;;;;19.11;43.31;101899.44;5052884;28;20082;-35
2022/05/12 10:17:32;;;;;;;5.82;1.40;;;;;;;19.34;43.12;101909.22;5053046;28;20025;-35
2022/05/12 10:20:02;;;;;;;5.22;1.88;;;;;;;19.42;42.45;101902.38;5053197;28;20075;-35
2022/05/12 10:22:33;;;;;;;3.22;1.10;;;;;;;19.73;40.93;101901.50;5052570;28;20028;-35
2022/05/12 10:25:21;;;;;;;3.25;0.98;;;;;;;19.83;39.58;101902.66;5052621;28;20029;-35
2022/05/12 10:28:08;;;;;;;2.28;1.20;;;;;;;19.72;40.71;101912.75;5053094;28;20037;-35
2022/05/12 10:30:55;;;;;;;4.15;0.93;;;;;;;19.36;41.95;101898.78;5051425;28;20033;-36
2022/05/12 10:33:36;;;;;;;4.63;1.67;;;;;;;19.10;41.79;101908.75;5052502;28;20029;-35
2022/05/12 10:36:22;;;;;;;3.90;1.08;;;;;;;19.49;41.99;101897.50;5052399;28;20032;-36
2022/05/12 10:39:08;;;;;;;2.83;1.10;;;;;;;19.89;41.06;101907.91;5053259;28;20029;-35
2022/05/12 10:41:38;;;;;;;3.50;1.10;;;;;;;19.77;40.10;101899.06;5052749;28;20040;-35
2022/05/12 10:44:43;;;;;;;4.57;1.20;;;;;;;19.66;41.63;101909.16;5052366;28;20096;-35
2022/05/12 10:47:22;;;;;;;4.80;1.25;;;;;;;19.42;40.55;101899.63;5052971;28;20056;-35
2022/05/12 10:49:56;;;;;;;4.43;1.20;;;;;;;19.49;40.17;101908.47;5052518;28;20366;-35
2022/05/12 10:52:47;;;;;;;2.75;1.00;;;;;;;19.44;40.84;101895.56;5052929;28;20033;-35
2022/05/12 10:55:12;;;;;;;4.10;0.98;;;;;;;19.17;40.22;101898.38;5056158;28;20029;-35
2022/05/12 10:57:40;;;;;;;;;;;;;;;19.40;41.37;101905.41;5057000;28;20029;-35
2022/05/12 11:00:44;;;;;;;1.95;0.98;;;;;;;19.28;40.69;101902.03;5056192;28;20367;-35
2022/05/12 11:03:19;;;;;;;4.32;0.90;;;;;;;19.55;39.81;101893.69;5055981;28;20025;-35
2022/05/12 11:05:54;;;;;;;3.90;1.10;;;;;;;19.56;38.84;101901.66;5055828;28;20029;-35
2022/05/12 11:08:24;;;;;;;4.10;0.93;;;;;;;19.36;38.17;101898.78;5056353;28;20446;-35
2022/05/12 11:10:54;;;;;;;3.15;1.00;;;;;;;19.23;38.44;101897.34;5056615;28;20049;-35
2022/05/12 11:13:34;;;;;;;2.15;0.80;;;;;;;19.32;38.88;101892.16;5055897;28;20040;-35
2022/05/12 11:16:04;;;;;;;4.57;1.13;;;;;;;19.43;38.56;101891.16;5056091;28;20440;-35
2022/05/12 11:18:42;;;;;;;2.42;0.90;;;;;;;19.50;38.53;101891.75;5055831;28;20024;-35
2022/05/12 11:21:23;;;;;;;3.63;1.25;;;;;;;19.56;39.60;101884.38;5055836;28;20477;-35
2022/05/12 11:24:23;;;;;;;2.90;1.15;;;;;;;19.83;39.83;101888.94;5055649;28;20033;-35
2022/05/12 11:27:02;;;;;;;3.00;1.20;;;;;;;20.02;37.38;101893.69;5055678;28;20025;-36
2022/05/12 11:29:53;;;;;;;3.13;0.90;;;;;;;20.39;37.02;101880.88;5056132;28;20103;-36
2022/05/12 11:32:28;;;;;;;4.38;1.45;;;;;;;20.54;35.38;101879.00;5055803;28;20119;-36
2022/05/12 11:35:21;;;;;;;3.40;0.80;;;;;;;20.92;37.09;101878.75;5056267;28;20073;-35
2022/05/12 11:38:10;;;;;;;3.10;1.20;;;;;;;21.19;36.60;101865.53;5033176;28;20126;-36
2022/05/12 11:40:43;;;;;;;3.35;1.15;;;;;;;21.23;36.00;101872.13;5033137;28;20084;-35
2022/05/12 11:46:23;;;;;;;2.88;0.95;;;;;;;20.68;35.72;101871.03;5033845;28;20520;-35
2022/05/12 11:49:04;;;;;;;7.13;1.10;;;;;;;20.68;36.21;101879.28;5032897;28;20048;-35
2022/05/12 11:52:00;;;;;;;2.78;0.95;;;;;;;20.93;36.24;101877.63;5033328;28;20099;-35
2022/05/12 11:54:33;;;;;;;3.60;1.00;;;;;;;21.07;36.16;101870.47;5032749;28;20236;-36
2022/05/12 11:57:02;;;;;;;4.15;1.02;;;;;;;21.24;35.51;101865.53;5032984;28;20110;-36